This is the latest recevied weather packets stored in our database for station/object SQ9MHX-13. If no packets are shown the sender has not sent any weather packets the latest 10 day(s).
| Time | Temp. | Humidity | Pressure | Rain* | Wind** | Luminosity | Snow |
|---|---|---|---|---|---|---|---|
| 1777938927 | 11.11° C | 56% | 968.9 hPa | - | 0 m/s | - | - |
| 1777938629 | 11.11° C | 56% | 968.9 hPa | - | 0 m/s | - | - |
| 1777938330 | 11.11° C | 55% | 968.7 hPa | - | 0 m/s | - | - |
| 1777938032 | 11.11° C | 55% | 968.5 hPa | - | 0 m/s | - | - |
| 1777937733 | 11.11° C | 55% | 968.5 hPa | - | 0 m/s | - | - |
| 1777937435 | 11.11° C | 55% | 968.2 hPa | - | 0 m/s | - | - |
| 1777937136 | 12.22° C | 52% | 967.8 hPa | - | 0 m/s | - | - |
| 1777936838 | 12.22° C | 52% | 967.6 hPa | - | 0 m/s | - | - |
| 1777936540 | 12.22° C | 54% | 967.7 hPa | - | 0 m/s | - | - |
| 1777936241 | 12.22° C | 54% | 967.6 hPa | - | 0 m/s | - | - |
| 1777935943 | 12.22° C | 56% | 967.5 hPa | - | 0 m/s | - | - |
| 1777935644 | 12.22° C | 55% | 967.6 hPa | - | 0 m/s | - | - |
| 1777935346 | 12.22° C | 56% | 967.9 hPa | - | 0 m/s | - | - |
| 1777935243 | 12.22° C | 53% | 967.5 hPa | - | 0 m/s | - | - |
| 1777935047 | 12.22° C | 53% | 967.5 hPa | - | 0 m/s | - | - |
| 1777934749 | 12.78° C | 52% | 967.5 hPa | - | 0 m/s | - | - |
| 1777934152 | 12.22° C | 55% | 967.4 hPa | - | 0 m/s | - | - |
| 1777933853 | 12.78° C | 55% | 967.4 hPa | - | 0 m/s | - | - |
| 1777933555 | 12.22° C | 56% | 967.6 hPa | - | 0 m/s | - | - |
| 1777932958 | 12.22° C | 58% | 968.2 hPa | - | 0 m/s | - | - |
| 1777932724 | 12.22° C | 59% | 968.5 hPa | - | 0 m/s | - | - |
| 1777932659 | 12.22° C | 59% | 968.5 hPa | - | 0 m/s | - | - |
| 1777932361 | 11.11° C | 59% | 968.8 hPa | - | 0 m/s | - | - |
| 1777932062 | 11.11° C | 62% | 969.4 hPa | - | 0 m/s | - | - |
| 1777931764 | 11.11° C | 63% | 969.6 hPa | - | 0 m/s | - | - |
* Rain since midnight (hover to see other rain measurements)
** Current wind speed in m/s (hover to see current wind gust speed)